sensor_id;sensor_type;location;lat;lon;timestamp;P1;durP1;ratioP1;P2;durP2;ratioP2
44036;SDS011;62488;-37.670;-63.532;2023-03-01T00:01:29;26.98;;;4.97;;
44036;SDS011;62488;-37.670;-63.532;2023-03-01T00:03:57;28.27;;;6.63;;
44036;SDS011;62488;-37.670;-63.532;2023-03-01T00:06:25;28.15;;;6.38;;
44036;SDS011;62488;-37.670;-63.532;2023-03-01T00:08:53;31.03;;;7.63;;
44036;SDS011;62488;-37.670;-63.532;2023-03-01T00:11:27;27.38;;;6.40;;
44036;SDS011;62488;-37.670;-63.532;2023-03-01T00:13:56;19.15;;;5.18;;
44036;SDS011;62488;-37.670;-63.532;2023-03-01T00:16:30;23.73;;;6.45;;
44036;SDS011;62488;-37.670;-63.532;2023-03-01T00:18:59;21.38;;;4.90;;
44036;SDS011;62488;-37.670;-63.532;2023-03-01T00:21:26;25.70;;;7.47;;
44036;SDS011;62488;-37.670;-63.532;2023-03-01T00:23:54;30.95;;;6.72;;
44036;SDS011;62488;-37.670;-63.532;2023-03-01T00:26:21;20.88;;;5.43;;
44036;SDS011;62488;-37.670;-63.532;2023-03-01T00:28:50;24.90;;;5.93;;
44036;SDS011;62488;-37.670;-63.532;2023-03-01T00:31:19;22.73;;;5.40;;
44036;SDS011;62488;-37.670;-63.532;2023-03-01T00:33:47;28.63;;;6.55;;
44036;SDS011;62488;-37.670;-63.532;2023-03-01T00:36:15;21.13;;;5.38;;
44036;SDS011;62488;-37.670;-63.532;2023-03-01T00:38:43;17.88;;;5.10;;
44036;SDS011;62488;-37.670;-63.532;2023-03-01T00:41:12;22.83;;;5.57;;
44036;SDS011;62488;-37.670;-63.532;2023-03-01T00:43:42;24.83;;;5.80;;
44036;SDS011;62488;-37.670;-63.532;2023-03-01T00:46:10;16.10;;;5.13;;
44036;SDS011;62488;-37.670;-63.532;2023-03-01T00:48:40;24.65;;;5.47;;
44036;SDS011;62488;-37.670;-63.532;2023-03-01T00:53:36;16.65;;;5.40;;
44036;SDS011;62488;-37.670;-63.532;2023-03-01T00:56:04;14.43;;;5.50;;
44036;SDS011;62488;-37.670;-63.532;2023-03-01T00:58:32;21.65;;;5.90;;
44036;SDS011;62488;-37.670;-63.532;2023-03-01T01:00:59;28.20;;;6.20;;
44036;SDS011;62488;-37.670;-63.532;2023-03-01T01:03:32;28.60;;;6.78;;
44036;SDS011;62488;-37.670;-63.532;2023-03-01T01:05:59;10.55;;;5.57;;
44036;SDS011;62488;-37.670;-63.532;2023-03-01T01:08:34;18.83;;;5.22;;
44036;SDS011;62488;-37.670;-63.532;2023-03-01T01:11:01;18.10;;;5.88;;
44036;SDS011;62488;-37.670;-63.532;2023-03-01T01:13:29;12.75;;;5.57;;
44036;SDS011;62488;-37.670;-63.532;2023-03-01T01:16:00;27.83;;;6.03;;
44036;SDS011;62488;-37.670;-63.532;2023-03-01T01:18:27;18.10;;;6.00;;
44036;SDS011;62488;-37.670;-63.532;2023-03-01T01:20:55;22.88;;;6.57;;
44036;SDS011;62488;-37.670;-63.532;2023-03-01T01:23:22;16.60;;;5.68;;
44036;SDS011;62488;-37.670;-63.532;2023-03-01T01:25:49;12.55;;;5.63;;
44036;SDS011;62488;-37.670;-63.532;2023-03-01T01:41:06;12.10;;;5.53;;
44036;SDS011;62488;-37.670;-63.532;2023-03-01T01:43:38;25.27;;;5.45;;
44036;SDS011;62488;-37.670;-63.532;2023-03-01T01:49:00;9.82;;;4.95;;
44036;SDS011;62488;-37.670;-63.532;2023-03-01T01:51:49;7.93;;;4.70;;
44036;SDS011;62488;-37.670;-63.532;2023-03-01T01:54:23;12.23;;;4.80;;
44036;SDS011;62488;-37.670;-63.532;2023-03-01T01:56:58;6.22;;;5.07;;
44036;SDS011;62488;-37.670;-63.532;2023-03-01T01:59:30;5.65;;;4.57;;
44036;SDS011;62488;-37.670;-63.532;2023-03-01T02:01:59;11.80;;;4.85;;
44036;SDS011;62488;-37.670;-63.532;2023-03-01T02:04:28;9.57;;;4.72;;
44036;SDS011;62488;-37.670;-63.532;2023-03-01T02:06:59;12.43;;;4.85;;
44036;SDS011;62488;-37.670;-63.532;2023-03-01T02:09:32;11.00;;;5.15;;
44036;SDS011;62488;-37.670;-63.532;2023-03-01T02:12:00;5.30;;;4.05;;
44036;SDS011;62488;-37.670;-63.532;2023-03-01T02:14:28;7.33;;;4.67;;
44036;SDS011;62488;-37.670;-63.532;2023-03-01T02:16:55;15.07;;;5.15;;
44036;SDS011;62488;-37.670;-63.532;2023-03-01T02:19:26;7.57;;;4.07;;
44036;SDS011;62488;-37.670;-63.532;2023-03-01T02:22:18;11.95;;;4.85;;
44036;SDS011;62488;-37.670;-63.532;2023-03-01T02:24:53;9.63;;;4.40;;
44036;SDS011;62488;-37.670;-63.532;2023-03-01T02:30:17;9.20;;;4.72;;
44036;SDS011;62488;-37.670;-63.532;2023-03-01T02:32:46;5.07;;;3.65;;
44036;SDS011;62488;-37.670;-63.532;2023-03-01T02:35:15;8.57;;;4.45;;
44036;SDS011;62488;-37.670;-63.532;2023-03-01T02:37:43;9.70;;;3.92;;
44036;SDS011;62488;-37.670;-63.532;2023-03-01T02:40:12;6.88;;;4.32;;
44036;SDS011;62488;-37.670;-63.532;2023-03-01T02:42:47;9.35;;;4.20;;
44036;SDS011;62488;-37.670;-63.532;2023-03-01T02:45:19;9.38;;;4.47;;
44036;SDS011;62488;-37.670;-63.532;2023-03-01T02:47:46;6.18;;;4.20;;
44036;SDS011;62488;-37.670;-63.532;2023-03-01T02:52:47;10.02;;;4.10;;
44036;SDS011;62488;-37.670;-63.532;2023-03-01T02:55:58;6.90;;;4.75;;
44036;SDS011;62488;-37.670;-63.532;2023-03-01T02:58:25;9.20;;;4.25;;
44036;SDS011;62488;-37.670;-63.532;2023-03-01T03:00:52;10.30;;;4.53;;
44036;SDS011;62488;-37.670;-63.532;2023-03-01T03:03:20;9.45;;;4.85;;
44036;SDS011;62488;-37.670;-63.532;2023-03-01T03:05:47;9.93;;;4.50;;
44036;SDS011;62488;-37.670;-63.532;2023-03-01T03:08:16;5.05;;;4.32;;
44036;SDS011;62488;-37.670;-63.532;2023-03-01T03:10:49;10.45;;;4.25;;
44036;SDS011;62488;-37.670;-63.532;2023-03-01T03:13:16;12.40;;;5.40;;
44036;SDS011;62488;-37.670;-63.532;2023-03-01T03:15:44;10.20;;;4.47;;
44036;SDS011;62488;-37.670;-63.532;2023-03-01T03:18:12;13.38;;;4.78;;
44036;SDS011;62488;-37.670;-63.532;2023-03-01T03:20:42;11.95;;;4.22;;
44036;SDS011;62488;-37.670;-63.532;2023-03-01T03:23:10;11.60;;;4.88;;
44036;SDS011;62488;-37.670;-63.532;2023-03-01T03:25:37;24.35;;;5.45;;
44036;SDS011;62488;-37.670;-63.532;2023-03-01T03:28:05;13.13;;;5.53;;
44036;SDS011;62488;-37.670;-63.532;2023-03-01T03:30:36;8.23;;;4.50;;
44036;SDS011;62488;-37.670;-63.532;2023-03-01T03:33:04;8.13;;;4.60;;
44036;SDS011;62488;-37.670;-63.532;2023-03-01T03:35:33;7.38;;;4.10;;
44036;SDS011;62488;-37.670;-63.532;2023-03-01T03:38:06;11.00;;;4.88;;
44036;SDS011;62488;-37.670;-63.532;2023-03-01T03:40:45;14.18;;;4.85;;
44036;SDS011;62488;-37.670;-63.532;2023-03-01T03:43:15;11.88;;;5.18;;
44036;SDS011;62488;-37.670;-63.532;2023-03-01T03:45:44;11.10;;;4.55;;
44036;SDS011;62488;-37.670;-63.532;2023-03-01T03:48:12;11.90;;;4.68;;
44036;SDS011;62488;-37.670;-63.532;2023-03-01T03:50:40;11.65;;;5.10;;
44036;SDS011;62488;-37.670;-63.532;2023-03-01T03:53:11;11.20;;;4.72;;
44036;SDS011;62488;-37.670;-63.532;2023-03-01T03:55:38;13.75;;;4.97;;
44036;SDS011;62488;-37.670;-63.532;2023-03-01T03:58:07;15.70;;;4.97;;
44036;SDS011;62488;-37.670;-63.532;2023-03-01T04:00:39;14.70;;;4.97;;
44036;SDS011;62488;-37.670;-63.532;2023-03-01T04:03:08;12.40;;;5.40;;
44036;SDS011;62488;-37.670;-63.532;2023-03-01T04:05:37;6.23;;;4.67;;
44036;SDS011;62488;-37.670;-63.532;2023-03-01T04:08:05;10.98;;;4.45;;
44036;SDS011;62488;-37.670;-63.532;2023-03-01T04:10:34;12.88;;;5.03;;
44036;SDS011;62488;-37.670;-63.532;2023-03-01T04:13:05;13.73;;;5.03;;
44036;SDS011;62488;-37.670;-63.532;2023-03-01T04:15:33;14.40;;;5.28;;
44036;SDS011;62488;-37.670;-63.532;2023-03-01T04:18:01;16.40;;;5.45;;
44036;SDS011;62488;-37.670;-63.532;2023-03-01T04:20:30;9.75;;;5.18;;
44036;SDS011;62488;-37.670;-63.532;2023-03-01T04:23:07;11.68;;;5.45;;
44036;SDS011;62488;-37.670;-63.532;2023-03-01T04:25:51;16.60;;;5.68;;
44036;SDS011;62488;-37.670;-63.532;2023-03-01T04:28:23;14.32;;;5.80;;
44036;SDS011;62488;-37.670;-63.532;2023-03-01T04:30:57;19.52;;;5.53;;
44036;SDS011;62488;-37.670;-63.532;2023-03-01T04:33:30;23.95;;;6.43;;
44036;SDS011;62488;-37.670;-63.532;2023-03-01T04:35:57;13.35;;;5.63;;
44036;SDS011;62488;-37.670;-63.532;2023-03-01T04:38:24;8.85;;;5.22;;
44036;SDS011;62488;-37.670;-63.532;2023-03-01T04:40:51;17.88;;;6.32;;
44036;SDS011;62488;-37.670;-63.532;2023-03-01T04:43:18;15.68;;;6.20;;
44036;SDS011;62488;-37.670;-63.532;2023-03-01T04:45:45;7.00;;;5.38;;
44036;SDS011;62488;-37.670;-63.532;2023-03-01T04:48:12;18.02;;;6.70;;
44036;SDS011;62488;-37.670;-63.532;2023-03-01T04:50:39;22.73;;;6.28;;
44036;SDS011;62488;-37.670;-63.532;2023-03-01T04:53:05;10.77;;;5.22;;
44036;SDS011;62488;-37.670;-63.532;2023-03-01T04:55:33;11.45;;;5.70;;
44036;SDS011;62488;-37.670;-63.532;2023-03-01T04:58:00;11.13;;;5.22;;
44036;SDS011;62488;-37.670;-63.532;2023-03-01T05:00:27;11.30;;;5.55;;
44036;SDS011;62488;-37.670;-63.532;2023-03-01T05:02:58;8.95;;;4.88;;
44036;SDS011;62488;-37.670;-63.532;2023-03-01T05:05:28;7.68;;;5.35;;
44036;SDS011;62488;-37.670;-63.532;2023-03-01T05:08:05;13.13;;;5.75;;
44036;SDS011;62488;-37.670;-63.532;2023-03-01T05:10:34;6.72;;;4.93;;
44036;SDS011;62488;-37.670;-63.532;2023-03-01T05:13:04;10.77;;;5.18;;
44036;SDS011;62488;-37.670;-63.532;2023-03-01T05:15:32;8.27;;;5.30;;
44036;SDS011;62488;-37.670;-63.532;2023-03-01T05:17:59;9.65;;;5.03;;
44036;SDS011;62488;-37.670;-63.532;2023-03-01T05:20:27;8.35;;;4.88;;
44036;SDS011;62488;-37.670;-63.532;2023-03-01T05:22:56;6.43;;;4.40;;
44036;SDS011;62488;-37.670;-63.532;2023-03-01T05:25:24;19.67;;;5.65;;
44036;SDS011;62488;-37.670;-63.532;2023-03-01T05:27:52;8.10;;;5.38;;
44036;SDS011;62488;-37.670;-63.532;2023-03-01T05:30:19;9.60;;;4.88;;
44036;SDS011;62488;-37.670;-63.532;2023-03-01T05:32:47;8.02;;;4.82;;
44036;SDS011;62488;-37.670;-63.532;2023-03-01T05:35:21;8.68;;;5.35;;
44036;SDS011;62488;-37.670;-63.532;2023-03-01T05:37:48;8.07;;;5.35;;
44036;SDS011;62488;-37.670;-63.532;2023-03-01T05:40:20;12.15;;;5.63;;
44036;SDS011;62488;-37.670;-63.532;2023-03-01T05:42:53;7.90;;;5.05;;
44036;SDS011;62488;-37.670;-63.532;2023-03-01T05:45:22;11.65;;;5.82;;
44036;SDS011;62488;-37.670;-63.532;2023-03-01T05:47:51;8.55;;;5.50;;
44036;SDS011;62488;-37.670;-63.532;2023-03-01T05:50:21;12.67;;;5.07;;
44036;SDS011;62488;-37.670;-63.532;2023-03-01T05:52:59;13.90;;;5.22;;
44036;SDS011;62488;-37.670;-63.532;2023-03-01T05:55:26;11.15;;;6.00;;
44036;SDS011;62488;-37.670;-63.532;2023-03-01T05:57:54;9.97;;;5.03;;
44036;SDS011;62488;-37.670;-63.532;2023-03-01T06:00:23;8.13;;;4.78;;
44036;SDS011;62488;-37.670;-63.532;2023-03-01T06:02:50;10.63;;;5.32;;
44036;SDS011;62488;-37.670;-63.532;2023-03-01T06:05:19;6.50;;;4.65;;
44036;SDS011;62488;-37.670;-63.532;2023-03-01T06:07:46;11.43;;;5.55;;
44036;SDS011;62488;-37.670;-63.532;2023-03-01T06:10:13;8.75;;;6.25;;
44036;SDS011;62488;-37.670;-63.532;2023-03-01T06:12:40;9.32;;;5.85;;
44036;SDS011;62488;-37.670;-63.532;2023-03-01T06:15:09;7.72;;;5.22;;
44036;SDS011;62488;-37.670;-63.532;2023-03-01T06:17:38;6.03;;;5.38;;
44036;SDS011;62488;-37.670;-63.532;2023-03-01T06:20:07;9.55;;;5.97;;
44036;SDS011;62488;-37.670;-63.532;2023-03-01T06:22:38;8.10;;;5.22;;
44036;SDS011;62488;-37.670;-63.532;2023-03-01T06:25:06;15.00;;;5.43;;
44036;SDS011;62488;-37.670;-63.532;2023-03-01T06:27:34;12.48;;;5.18;;
44036;SDS011;62488;-37.670;-63.532;2023-03-01T06:30:01;13.50;;;5.55;;
44036;SDS011;62488;-37.670;-63.532;2023-03-01T06:32:28;8.52;;;5.63;;
44036;SDS011;62488;-37.670;-63.532;2023-03-01T06:34:57;8.25;;;5.72;;
44036;SDS011;62488;-37.670;-63.532;2023-03-01T06:37:24;6.65;;;5.25;;
44036;SDS011;62488;-37.670;-63.532;2023-03-01T06:39:52;8.73;;;5.90;;
44036;SDS011;62488;-37.670;-63.532;2023-03-01T06:42:19;8.10;;;5.50;;
44036;SDS011;62488;-37.670;-63.532;2023-03-01T06:44:46;10.73;;;6.15;;
44036;SDS011;62488;-37.670;-63.532;2023-03-01T06:47:13;8.73;;;5.80;;
44036;SDS011;62488;-37.670;-63.532;2023-03-01T06:49:40;10.32;;;5.43;;
44036;SDS011;62488;-37.670;-63.532;2023-03-01T06:52:07;9.13;;;5.55;;
44036;SDS011;62488;-37.670;-63.532;2023-03-01T06:54:34;11.88;;;6.00;;
44036;SDS011;62488;-37.670;-63.532;2023-03-01T06:57:01;10.57;;;5.78;;
44036;SDS011;62488;-37.670;-63.532;2023-03-01T06:59:28;11.63;;;5.80;;
44036;SDS011;62488;-37.670;-63.532;2023-03-01T07:01:55;8.05;;;6.05;;
44036;SDS011;62488;-37.670;-63.532;2023-03-01T07:04:22;11.35;;;5.47;;
44036;SDS011;62488;-37.670;-63.532;2023-03-01T07:06:49;9.32;;;5.00;;
44036;SDS011;62488;-37.670;-63.532;2023-03-01T07:09:21;5.85;;;4.85;;
44036;SDS011;62488;-37.670;-63.532;2023-03-01T07:11:49;13.02;;;5.97;;
44036;SDS011;62488;-37.670;-63.532;2023-03-01T07:14:16;9.68;;;5.78;;
44036;SDS011;62488;-37.670;-63.532;2023-03-01T07:16:45;15.80;;;6.30;;
44036;SDS011;62488;-37.670;-63.532;2023-03-01T07:19:12;10.52;;;5.63;;
44036;SDS011;62488;-37.670;-63.532;2023-03-01T07:21:40;10.05;;;5.85;;
44036;SDS011;62488;-37.670;-63.532;2023-03-01T07:24:07;10.98;;;5.43;;
44036;SDS011;62488;-37.670;-63.532;2023-03-01T07:26:34;12.48;;;5.38;;
44036;SDS011;62488;-37.670;-63.532;2023-03-01T07:29:02;10.60;;;5.05;;
44036;SDS011;62488;-37.670;-63.532;2023-03-01T07:31:31;8.82;;;4.90;;
44036;SDS011;62488;-37.670;-63.532;2023-03-01T07:33:58;6.38;;;4.57;;
44036;SDS011;62488;-37.670;-63.532;2023-03-01T07:36:25;8.95;;;5.82;;
44036;SDS011;62488;-37.670;-63.532;2023-03-01T07:38:52;12.00;;;5.85;;
44036;SDS011;62488;-37.670;-63.532;2023-03-01T07:41:21;11.15;;;5.18;;
44036;SDS011;62488;-37.670;-63.532;2023-03-01T07:43:48;7.60;;;5.30;;
44036;SDS011;62488;-37.670;-63.532;2023-03-01T07:46:15;14.85;;;5.55;;
44036;SDS011;62488;-37.670;-63.532;2023-03-01T07:48:43;15.32;;;5.53;;
44036;SDS011;62488;-37.670;-63.532;2023-03-01T07:51:10;6.00;;;4.88;;
44036;SDS011;62488;-37.670;-63.532;2023-03-01T07:53:37;11.27;;;5.38;;
44036;SDS011;62488;-37.670;-63.532;2023-03-01T07:56:08;9.23;;;5.07;;
44036;SDS011;62488;-37.670;-63.532;2023-03-01T07:58:38;8.57;;;5.05;;
44036;SDS011;62488;-37.670;-63.532;2023-03-01T08:01:09;10.38;;;4.93;;
44036;SDS011;62488;-37.670;-63.532;2023-03-01T08:03:38;8.13;;;5.32;;
44036;SDS011;62488;-37.670;-63.532;2023-03-01T08:06:06;7.10;;;5.35;;
44036;SDS011;62488;-37.670;-63.532;2023-03-01T08:08:34;8.02;;;5.18;;
44036;SDS011;62488;-37.670;-63.532;2023-03-01T08:11:02;7.88;;;4.35;;
44036;SDS011;62488;-37.670;-63.532;2023-03-01T08:13:31;7.18;;;4.18;;
44036;SDS011;62488;-37.670;-63.532;2023-03-01T08:16:05;7.50;;;4.20;;
44036;SDS011;62488;-37.670;-63.532;2023-03-01T08:18:38;5.65;;;3.80;;
44036;SDS011;62488;-37.670;-63.532;2023-03-01T08:21:09;5.78;;;4.30;;
44036;SDS011;62488;-37.670;-63.532;2023-03-01T08:23:37;7.72;;;3.60;;
44036;SDS011;62488;-37.670;-63.532;2023-03-01T08:26:11;6.00;;;3.90;;
44036;SDS011;62488;-37.670;-63.532;2023-03-01T08:28:44;10.55;;;4.35;;
44036;SDS011;62488;-37.670;-63.532;2023-03-01T08:31:15;4.40;;;3.47;;
44036;SDS011;62488;-37.670;-63.532;2023-03-01T08:33:45;8.88;;;3.60;;
44036;SDS011;62488;-37.670;-63.532;2023-03-01T08:36:20;6.28;;;3.28;;
44036;SDS011;62488;-37.670;-63.532;2023-03-01T08:38:57;4.47;;;3.35;;
44036;SDS011;62488;-37.670;-63.532;2023-03-01T08:41:25;4.90;;;2.67;;
44036;SDS011;62488;-37.670;-63.532;2023-03-01T08:43:52;4.65;;;2.85;;
44036;SDS011;62488;-37.670;-63.532;2023-03-01T08:46:27;3.60;;;2.20;;
44036;SDS011;62488;-37.670;-63.532;2023-03-01T08:48:58;6.53;;;2.42;;
44036;SDS011;62488;-37.670;-63.532;2023-03-01T08:51:25;4.63;;;2.00;;
44036;SDS011;62488;-37.670;-63.532;2023-03-01T08:53:53;7.25;;;2.17;;
44036;SDS011;62488;-37.670;-63.532;2023-03-01T08:56:20;4.63;;;1.58;;
44036;SDS011;62488;-37.670;-63.532;2023-03-01T08:58:47;7.82;;;2.58;;
44036;SDS011;62488;-37.670;-63.532;2023-03-01T09:01:16;7.05;;;1.77;;
44036;SDS011;62488;-37.670;-63.532;2023-03-01T09:03:44;4.03;;;1.67;;
44036;SDS011;62488;-37.670;-63.532;2023-03-01T09:06:11;8.40;;;1.80;;
44036;SDS011;62488;-37.670;-63.532;2023-03-01T09:08:41;6.97;;;1.55;;
44036;SDS011;62488;-37.670;-63.532;2023-03-01T09:11:11;5.30;;;1.50;;
44036;SDS011;62488;-37.670;-63.532;2023-03-01T09:13:41;7.78;;;1.48;;
44036;SDS011;62488;-37.670;-63.532;2023-03-01T09:16:09;7.15;;;1.27;;
44036;SDS011;62488;-37.670;-63.532;2023-03-01T09:18:39;9.55;;;1.52;;
44036;SDS011;62488;-37.670;-63.532;2023-03-01T09:21:07;6.82;;;1.20;;
44036;SDS011;62488;-37.670;-63.532;2023-03-01T09:23:37;7.82;;;1.58;;
44036;SDS011;62488;-37.670;-63.532;2023-03-01T09:26:10;9.27;;;1.33;;
44036;SDS011;62488;-37.670;-63.532;2023-03-01T09:28:39;9.70;;;1.15;;
44036;SDS011;62488;-37.670;-63.532;2023-03-01T09:31:09;5.20;;;1.73;;
44036;SDS011;62488;-37.670;-63.532;2023-03-01T09:33:38;6.63;;;1.42;;
44036;SDS011;62488;-37.670;-63.532;2023-03-01T09:36:07;12.52;;;1.60;;
44036;SDS011;62488;-37.670;-63.532;2023-03-01T09:38:42;8.75;;;1.40;;
44036;SDS011;62488;-37.670;-63.532;2023-03-01T09:41:18;9.00;;;2.17;;
44036;SDS011;62488;-37.670;-63.532;2023-03-01T09:43:53;9.73;;;2.08;;
44036;SDS011;62488;-37.670;-63.532;2023-03-01T09:46:25;6.88;;;2.17;;
44036;SDS011;62488;-37.670;-63.532;2023-03-01T09:48:57;5.18;;;1.67;;
44036;SDS011;62488;-37.670;-63.532;2023-03-01T09:51:32;26.75;;;2.78;;
44036;SDS011;62488;-37.670;-63.532;2023-03-01T09:54:02;13.35;;;1.83;;
44036;SDS011;62488;-37.670;-63.532;2023-03-01T09:56:32;18.02;;;2.42;;
44036;SDS011;62488;-37.670;-63.532;2023-03-01T10:04:42;15.25;;;2.35;;
44036;SDS011;62488;-37.670;-63.532;2023-03-01T10:09:44;13.02;;;2.63;;
44036;SDS011;62488;-37.670;-63.532;2023-03-01T10:12:14;29.30;;;3.45;;
44036;SDS011;62488;-37.670;-63.532;2023-03-01T10:14:51;21.50;;;2.60;;
44036;SDS011;62488;-37.670;-63.532;2023-03-01T10:20:26;32.58;;;3.53;;
44036;SDS011;62488;-37.670;-63.532;2023-03-01T10:23:03;16.60;;;1.73;;
44036;SDS011;62488;-37.670;-63.532;2023-03-01T10:25:38;14.00;;;3.13;;
44036;SDS011;62488;-37.670;-63.532;2023-03-01T10:28:43;24.48;;;3.42;;
44036;SDS011;62488;-37.670;-63.532;2023-03-01T10:31:12;18.45;;;2.35;;
44036;SDS011;62488;-37.670;-63.532;2023-03-01T10:33:55;20.30;;;2.67;;
44036;SDS011;62488;-37.670;-63.532;2023-03-01T10:36:24;25.17;;;3.08;;
44036;SDS011;62488;-37.670;-63.532;2023-03-01T10:38:52;14.35;;;2.15;;
44036;SDS011;62488;-37.670;-63.532;2023-03-01T10:41:22;24.45;;;2.40;;
44036;SDS011;62488;-37.670;-63.532;2023-03-01T10:43:56;20.17;;;2.75;;
44036;SDS011;62488;-37.670;-63.532;2023-03-01T10:46:32;19.63;;;2.80;;
44036;SDS011;62488;-37.670;-63.532;2023-03-01T10:49:15;25.85;;;3.67;;
44036;SDS011;62488;-37.670;-63.532;2023-03-01T10:51:45;43.85;;;5.25;;
44036;SDS011;62488;-37.670;-63.532;2023-03-01T10:54:34;34.58;;;5.68;;
44036;SDS011;62488;-37.670;-63.532;2023-03-01T10:57:01;53.38;;;7.60;;
44036;SDS011;62488;-37.670;-63.532;2023-03-01T10:59:35;48.83;;;6.82;;
44036;SDS011;62488;-37.670;-63.532;2023-03-01T11:02:49;46.30;;;6.63;;
44036;SDS011;62488;-37.670;-63.532;2023-03-01T11:05:13;64.70;;;7.75;;
44036;SDS011;62488;-37.670;-63.532;2023-03-01T11:10:19;33.65;;;4.15;;
44036;SDS011;62488;-37.670;-63.532;2023-03-01T11:12:53;31.10;;;3.55;;
44036;SDS011;62488;-37.670;-63.532;2023-03-01T11:15:32;34.45;;;3.63;;
44036;SDS011;62488;-37.670;-63.532;2023-03-01T11:17:58;23.15;;;2.95;;
44036;SDS011;62488;-37.670;-63.532;2023-03-01T11:20:28;7.53;;;1.90;;
44036;SDS011;62488;-37.670;-63.532;2023-03-01T11:23:10;22.25;;;2.90;;
44036;SDS011;62488;-37.670;-63.532;2023-03-01T11:25:43;20.55;;;2.45;;
44036;SDS011;62488;-37.670;-63.532;2023-03-01T11:28:20;15.30;;;2.97;;
44036;SDS011;62488;-37.670;-63.532;2023-03-01T11:36:11;12.43;;;2.53;;
44036;SDS011;62488;-37.670;-63.532;2023-03-01T11:38:39;11.00;;;2.05;;
44036;SDS011;62488;-37.670;-63.532;2023-03-01T11:41:16;19.30;;;2.35;;
44036;SDS011;62488;-37.670;-63.532;2023-03-01T11:49:12;17.55;;;2.58;;
44036;SDS011;62488;-37.670;-63.532;2023-03-01T11:52:19;24.35;;;2.40;;
44036;SDS011;62488;-37.670;-63.532;2023-03-01T12:10:41;14.35;;;2.85;;
44036;SDS011;62488;-37.670;-63.532;2023-03-01T12:13:42;18.77;;;2.60;;
44036;SDS011;62488;-37.670;-63.532;2023-03-01T12:43:51;8.27;;;1.55;;
44036;SDS011;62488;-37.670;-63.532;2023-03-01T12:52:00;12.32;;;1.38;;
44036;SDS011;62488;-37.670;-63.532;2023-03-01T12:57:11;12.32;;;1.83;;
44036;SDS011;62488;-37.670;-63.532;2023-03-01T12:59:51;7.40;;;1.20;;
44036;SDS011;62488;-37.670;-63.532;2023-03-01T13:02:46;9.05;;;1.40;;
44036;SDS011;62488;-37.670;-63.532;2023-03-01T13:05:42;7.43;;;1.70;;
44036;SDS011;62488;-37.670;-63.532;2023-03-01T13:08:32;7.35;;;1.15;;
44036;SDS011;62488;-37.670;-63.532;2023-03-01T13:11:21;10.70;;;1.75;;
44036;SDS011;62488;-37.670;-63.532;2023-03-01T13:13:49;16.10;;;1.63;;
44036;SDS011;62488;-37.670;-63.532;2023-03-01T13:16:21;6.22;;;1.48;;
44036;SDS011;62488;-37.670;-63.532;2023-03-01T13:19:27;14.80;;;2.15;;
44036;SDS011;62488;-37.670;-63.532;2023-03-01T13:21:53;14.32;;;1.70;;
44036;SDS011;62488;-37.670;-63.532;2023-03-01T13:24:41;9.15;;;1.55;;
44036;SDS011;62488;-37.670;-63.532;2023-03-01T13:27:10;18.13;;;2.13;;
44036;SDS011;62488;-37.670;-63.532;2023-03-01T13:32:29;12.60;;;1.90;;
44036;SDS011;62488;-37.670;-63.532;2023-03-01T13:35:40;9.52;;;1.65;;
44036;SDS011;62488;-37.670;-63.532;2023-03-01T13:37:52;3.40;;;1.42;;
44036;SDS011;62488;-37.670;-63.532;2023-03-01T13:40:58;12.45;;;2.10;;
44036;SDS011;62488;-37.670;-63.532;2023-03-01T13:43:30;64.70;;;9.05;;
44036;SDS011;62488;-37.670;-63.532;2023-03-01T13:46:08;12.38;;;2.05;;
44036;SDS011;62488;-37.670;-63.532;2023-03-01T13:49:02;15.20;;;3.03;;
44036;SDS011;62488;-37.670;-63.532;2023-03-01T13:51:29;13.35;;;2.05;;
44036;SDS011;62488;-37.670;-63.532;2023-03-01T13:53:57;9.57;;;1.67;;
44036;SDS011;62488;-37.670;-63.532;2023-03-01T13:56:26;6.68;;;1.35;;
44036;SDS011;62488;-37.670;-63.532;2023-03-01T14:01:31;44.08;;;5.43;;
44036;SDS011;62488;-37.670;-63.532;2023-03-01T14:04:00;15.00;;;1.63;;
44036;SDS011;62488;-37.670;-63.532;2023-03-01T14:06:30;8.02;;;1.35;;
44036;SDS011;62488;-37.670;-63.532;2023-03-01T14:09:14;4.40;;;1.23;;
44036;SDS011;62488;-37.670;-63.532;2023-03-01T14:12:39;11.48;;;1.70;;
44036;SDS011;62488;-37.670;-63.532;2023-03-01T14:15:02;10.30;;;1.20;;
44036;SDS011;62488;-37.670;-63.532;2023-03-01T14:17:55;10.52;;;1.77;;
44036;SDS011;62488;-37.670;-63.532;2023-03-01T14:20:58;3.70;;;1.60;;
44036;SDS011;62488;-37.670;-63.532;2023-03-01T14:23:25;16.27;;;2.15;;
44036;SDS011;62488;-37.670;-63.532;2023-03-01T14:25:57;14.93;;;2.38;;
44036;SDS011;62488;-37.670;-63.532;2023-03-01T14:28:25;7.60;;;1.40;;
44036;SDS011;62488;-37.670;-63.532;2023-03-01T14:30:57;6.95;;;1.27;;
44036;SDS011;62488;-37.670;-63.532;2023-03-01T14:33:32;9.20;;;1.25;;
44036;SDS011;62488;-37.670;-63.532;2023-03-01T14:36:07;8.95;;;1.00;;
44036;SDS011;62488;-37.670;-63.532;2023-03-01T14:41:07;14.25;;;2.63;;
44036;SDS011;62488;-37.670;-63.532;2023-03-01T14:43:39;6.05;;;1.40;;
44036;SDS011;62488;-37.670;-63.532;2023-03-01T14:46:18;6.43;;;1.75;;
44036;SDS011;62488;-37.670;-63.532;2023-03-01T14:49:19;10.20;;;1.67;;
44036;SDS011;62488;-37.670;-63.532;2023-03-01T14:52:06;12.05;;;1.63;;
44036;SDS011;62488;-37.670;-63.532;2023-03-01T14:54:50;8.93;;;1.88;;
44036;SDS011;62488;-37.670;-63.532;2023-03-01T14:57:20;11.25;;;1.33;;
44036;SDS011;62488;-37.670;-63.532;2023-03-01T14:59:53;7.43;;;1.15;;
44036;SDS011;62488;-37.670;-63.532;2023-03-01T15:02:24;8.40;;;1.85;;
44036;SDS011;62488;-37.670;-63.532;2023-03-01T15:04:54;9.45;;;1.63;;
44036;SDS011;62488;-37.670;-63.532;2023-03-01T15:07:24;11.68;;;1.75;;
44036;SDS011;62488;-37.670;-63.532;2023-03-01T15:09:58;4.68;;;1.40;;
44036;SDS011;62488;-37.670;-63.532;2023-03-01T15:14:55;9.38;;;1.85;;
44036;SDS011;62488;-37.670;-63.532;2023-03-01T15:17:26;12.10;;;2.57;;
44036;SDS011;62488;-37.670;-63.532;2023-03-01T15:19:57;7.18;;;1.70;;
44036;SDS011;62488;-37.670;-63.532;2023-03-01T15:22:25;12.52;;;1.35;;
44036;SDS011;62488;-37.670;-63.532;2023-03-01T15:24:53;6.22;;;1.10;;
44036;SDS011;62488;-37.670;-63.532;2023-03-01T15:27:23;19.73;;;2.05;;
44036;SDS011;62488;-37.670;-63.532;2023-03-01T15:29:58;6.88;;;1.23;;
44036;SDS011;62488;-37.670;-63.532;2023-03-01T15:32:35;6.00;;;1.52;;
44036;SDS011;62488;-37.670;-63.532;2023-03-01T15:41:02;9.13;;;1.80;;
44036;SDS011;62488;-37.670;-63.532;2023-03-01T15:46:44;8.10;;;1.70;;
44036;SDS011;62488;-37.670;-63.532;2023-03-01T15:49:30;10.23;;;1.42;;
44036;SDS011;62488;-37.670;-63.532;2023-03-01T15:52:05;13.93;;;1.52;;
44036;SDS011;62488;-37.670;-63.532;2023-03-01T15:54:57;5.15;;;1.05;;
44036;SDS011;62488;-37.670;-63.532;2023-03-01T15:57:26;5.57;;;1.10;;
44036;SDS011;62488;-37.670;-63.532;2023-03-01T15:59:53;7.57;;;1.17;;
44036;SDS011;62488;-37.670;-63.532;2023-03-01T16:02:20;8.93;;;1.70;;
44036;SDS011;62488;-37.670;-63.532;2023-03-01T16:04:49;11.32;;;1.30;;
44036;SDS011;62488;-37.670;-63.532;2023-03-01T16:07:17;8.65;;;1.30;;
44036;SDS011;62488;-37.670;-63.532;2023-03-01T16:09:44;8.25;;;1.45;;
44036;SDS011;62488;-37.670;-63.532;2023-03-01T16:12:14;9.85;;;1.38;;
44036;SDS011;62488;-37.670;-63.532;2023-03-01T16:16:49;6.45;;;1.17;;
44036;SDS011;62488;-37.670;-63.532;2023-03-01T16:19:16;11.68;;;1.35;;
44036;SDS011;62488;-37.670;-63.532;2023-03-01T16:21:43;9.27;;;1.33;;
44036;SDS011;62488;-37.670;-63.532;2023-03-01T16:24:12;2.65;;;0.90;;
44036;SDS011;62488;-37.670;-63.532;2023-03-01T16:26:39;5.88;;;1.75;;
44036;SDS011;62488;-37.670;-63.532;2023-03-01T16:29:07;6.15;;;1.23;;